sensor_id;sensor_type;location;lat;lon;timestamp;P1;durP1;ratioP1;P2;durP2;ratioP2
20976;SDS011;10647;51.016;3.720;2022-09-25T00:02:05;10.33;;;2.10;;
20976;SDS011;10647;51.016;3.720;2022-09-25T00:04:32;8.13;;;1.80;;
20976;SDS011;10647;51.016;3.720;2022-09-25T00:07:00;7.23;;;2.03;;
20976;SDS011;10647;51.016;3.720;2022-09-25T00:09:27;6.57;;;1.50;;
20976;SDS011;10647;51.016;3.720;2022-09-25T00:11:55;5.83;;;1.80;;
20976;SDS011;10647;51.016;3.720;2022-09-25T00:14:23;6.43;;;1.60;;
20976;SDS011;10647;51.016;3.720;2022-09-25T00:16:50;7.40;;;1.83;;
20976;SDS011;10647;51.016;3.720;2022-09-25T00:19:20;8.80;;;1.80;;
20976;SDS011;10647;51.016;3.720;2022-09-25T00:22:05;7.90;;;1.70;;
20976;SDS011;10647;51.016;3.720;2022-09-25T00:24:33;8.73;;;2.00;;
20976;SDS011;10647;51.016;3.720;2022-09-25T00:27:01;9.30;;;1.60;;
20976;SDS011;10647;51.016;3.720;2022-09-25T00:29:32;6.00;;;1.83;;
20976;SDS011;10647;51.016;3.720;2022-09-25T00:31:59;8.43;;;2.13;;
20976;SDS011;10647;51.016;3.720;2022-09-25T00:34:27;8.27;;;1.80;;
20976;SDS011;10647;51.016;3.720;2022-09-25T00:36:57;8.13;;;1.53;;
20976;SDS011;10647;51.016;3.720;2022-09-25T00:39:25;11.23;;;1.60;;
20976;SDS011;10647;51.016;3.720;2022-09-25T00:41:52;8.13;;;1.53;;
20976;SDS011;10647;51.016;3.720;2022-09-25T00:47:27;7.70;;;1.50;;
20976;SDS011;10647;51.016;3.720;2022-09-25T00:49:59;6.07;;;1.50;;
20976;SDS011;10647;51.016;3.720;2022-09-25T00:52:29;8.27;;;1.70;;
20976;SDS011;10647;51.016;3.720;2022-09-25T00:54:58;8.70;;;1.73;;
20976;SDS011;10647;51.016;3.720;2022-09-25T00:57:29;4.87;;;1.33;;
20976;SDS011;10647;51.016;3.720;2022-09-25T01:00:05;9.37;;;1.80;;
20976;SDS011;10647;51.016;3.720;2022-09-25T01:02:32;8.93;;;2.10;;
20976;SDS011;10647;51.016;3.720;2022-09-25T01:05:02;6.83;;;1.73;;
20976;SDS011;10647;51.016;3.720;2022-09-25T01:07:32;11.97;;;2.00;;
20976;SDS011;10647;51.016;3.720;2022-09-25T01:10:03;8.37;;;2.00;;
20976;SDS011;10647;51.016;3.720;2022-09-25T01:12:38;9.50;;;2.43;;
20976;SDS011;10647;51.016;3.720;2022-09-25T01:15:08;9.67;;;1.90;;
20976;SDS011;10647;51.016;3.720;2022-09-25T01:17:42;7.53;;;2.10;;
20976;SDS011;10647;51.016;3.720;2022-09-25T01:31:08;7.83;;;1.70;;
20976;SDS011;10647;51.016;3.720;2022-09-25T01:33:45;10.47;;;2.10;;
20976;SDS011;10647;51.016;3.720;2022-09-25T01:36:18;9.67;;;2.27;;
20976;SDS011;10647;51.016;3.720;2022-09-25T01:39:07;6.53;;;1.73;;
20976;SDS011;10647;51.016;3.720;2022-09-25T01:42:00;12.13;;;1.90;;
20976;SDS011;10647;51.016;3.720;2022-09-25T01:44:42;7.27;;;1.97;;
20976;SDS011;10647;51.016;3.720;2022-09-25T01:47:19;12.87;;;2.50;;
20976;SDS011;10647;51.016;3.720;2022-09-25T01:50:10;8.40;;;2.90;;
20976;SDS011;10647;51.016;3.720;2022-09-25T01:52:57;8.47;;;2.90;;
20976;SDS011;10647;51.016;3.720;2022-09-25T01:55:29;13.93;;;3.70;;
20976;SDS011;10647;51.016;3.720;2022-09-25T01:58:10;9.17;;;3.27;;
20976;SDS011;10647;51.016;3.720;2022-09-25T02:00:48;8.00;;;3.60;;
20976;SDS011;10647;51.016;3.720;2022-09-25T02:03:23;12.77;;;4.07;;
20976;SDS011;10647;51.016;3.720;2022-09-25T02:06:11;18.73;;;4.70;;
20976;SDS011;10647;51.016;3.720;2022-09-25T02:08:52;16.03;;;4.70;;
20976;SDS011;10647;51.016;3.720;2022-09-25T02:11:32;13.43;;;5.10;;
20976;SDS011;10647;51.016;3.720;2022-09-25T02:14:03;16.07;;;5.50;;
20976;SDS011;10647;51.016;3.720;2022-09-25T02:16:37;14.67;;;5.90;;
20976;SDS011;10647;51.016;3.720;2022-09-25T02:19:03;12.23;;;5.50;;
20976;SDS011;10647;51.016;3.720;2022-09-25T02:22:01;16.47;;;5.30;;
20976;SDS011;10647;51.016;3.720;2022-09-25T02:24:49;10.30;;;5.20;;
20976;SDS011;10647;51.016;3.720;2022-09-25T02:27:42;19.23;;;5.57;;
20976;SDS011;10647;51.016;3.720;2022-09-25T02:30:11;15.43;;;6.20;;
20976;SDS011;10647;51.016;3.720;2022-09-25T02:32:38;14.77;;;6.53;;
20976;SDS011;10647;51.016;3.720;2022-09-25T02:35:06;16.80;;;6.37;;
20976;SDS011;10647;51.016;3.720;2022-09-25T02:37:36;21.80;;;6.83;;
20976;SDS011;10647;51.016;3.720;2022-09-25T02:40:09;17.00;;;6.40;;
20976;SDS011;10647;51.016;3.720;2022-09-25T02:42:50;17.77;;;6.23;;
20976;SDS011;10647;51.016;3.720;2022-09-25T02:45:32;17.67;;;6.20;;
20976;SDS011;10647;51.016;3.720;2022-09-25T02:48:18;16.63;;;6.33;;
20976;SDS011;10647;51.016;3.720;2022-09-25T02:54:15;12.23;;;6.20;;
20976;SDS011;10647;51.016;3.720;2022-09-25T02:59:32;14.50;;;6.70;;
20976;SDS011;10647;51.016;3.720;2022-09-25T03:02:02;11.70;;;5.77;;
20976;SDS011;10647;51.016;3.720;2022-09-25T03:04:29;14.93;;;6.27;;
20976;SDS011;10647;51.016;3.720;2022-09-25T03:07:01;14.83;;;6.13;;
20976;SDS011;10647;51.016;3.720;2022-09-25T03:09:30;15.10;;;5.83;;
20976;SDS011;10647;51.016;3.720;2022-09-25T03:12:00;19.80;;;6.77;;
20976;SDS011;10647;51.016;3.720;2022-09-25T03:14:30;12.30;;;6.10;;
20976;SDS011;10647;51.016;3.720;2022-09-25T03:16:59;18.47;;;6.57;;
20976;SDS011;10647;51.016;3.720;2022-09-25T03:19:29;13.90;;;6.07;;
20976;SDS011;10647;51.016;3.720;2022-09-25T03:21:58;16.60;;;6.37;;
20976;SDS011;10647;51.016;3.720;2022-09-25T03:24:26;16.70;;;6.63;;
20976;SDS011;10647;51.016;3.720;2022-09-25T03:26:54;14.70;;;6.80;;
20976;SDS011;10647;51.016;3.720;2022-09-25T03:29:22;15.77;;;6.60;;
20976;SDS011;10647;51.016;3.720;2022-09-25T03:31:49;20.10;;;6.70;;
20976;SDS011;10647;51.016;3.720;2022-09-25T03:34:17;21.50;;;7.30;;
20976;SDS011;10647;51.016;3.720;2022-09-25T03:36:45;17.47;;;6.93;;
20976;SDS011;10647;51.016;3.720;2022-09-25T03:39:14;19.33;;;6.70;;
20976;SDS011;10647;51.016;3.720;2022-09-25T03:41:45;18.73;;;7.10;;
20976;SDS011;10647;51.016;3.720;2022-09-25T03:44:13;21.03;;;7.63;;
20976;SDS011;10647;51.016;3.720;2022-09-25T03:46:40;22.07;;;7.57;;
20976;SDS011;10647;51.016;3.720;2022-09-25T03:49:08;13.77;;;7.43;;
20976;SDS011;10647;51.016;3.720;2022-09-25T03:51:36;22.97;;;8.10;;
20976;SDS011;10647;51.016;3.720;2022-09-25T03:54:03;20.17;;;7.87;;
20976;SDS011;10647;51.016;3.720;2022-09-25T03:56:31;19.70;;;7.80;;
20976;SDS011;10647;51.016;3.720;2022-09-25T03:58:58;21.17;;;7.73;;
20976;SDS011;10647;51.016;3.720;2022-09-25T04:01:26;20.40;;;8.10;;
20976;SDS011;10647;51.016;3.720;2022-09-25T04:03:54;20.33;;;7.80;;
20976;SDS011;10647;51.016;3.720;2022-09-25T04:06:24;21.87;;;7.80;;
20976;SDS011;10647;51.016;3.720;2022-09-25T04:08:52;18.37;;;7.87;;
20976;SDS011;10647;51.016;3.720;2022-09-25T04:11:22;21.47;;;8.60;;
20976;SDS011;10647;51.016;3.720;2022-09-25T04:13:50;24.67;;;8.63;;
20976;SDS011;10647;51.016;3.720;2022-09-25T04:16:18;23.80;;;9.80;;
20976;SDS011;10647;51.016;3.720;2022-09-25T04:18:46;24.63;;;9.77;;
20976;SDS011;10647;51.016;3.720;2022-09-25T04:21:15;24.23;;;9.27;;
20976;SDS011;10647;51.016;3.720;2022-09-25T04:23:42;19.53;;;9.53;;
20976;SDS011;10647;51.016;3.720;2022-09-25T04:26:14;27.37;;;10.17;;
20976;SDS011;10647;51.016;3.720;2022-09-25T04:28:42;20.47;;;10.10;;
20976;SDS011;10647;51.016;3.720;2022-09-25T04:31:10;28.23;;;10.47;;
20976;SDS011;10647;51.016;3.720;2022-09-25T04:33:37;27.07;;;10.70;;
20976;SDS011;10647;51.016;3.720;2022-09-25T04:36:14;32.63;;;11.33;;
20976;SDS011;10647;51.016;3.720;2022-09-25T04:38:43;23.43;;;10.37;;
20976;SDS011;10647;51.016;3.720;2022-09-25T04:41:11;25.07;;;10.50;;
20976;SDS011;10647;51.016;3.720;2022-09-25T04:43:43;24.93;;;10.30;;
20976;SDS011;10647;51.016;3.720;2022-09-25T04:46:11;27.17;;;10.23;;
20976;SDS011;10647;51.016;3.720;2022-09-25T04:48:42;24.87;;;9.83;;
20976;SDS011;10647;51.016;3.720;2022-09-25T04:51:11;18.90;;;9.60;;
20976;SDS011;10647;51.016;3.720;2022-09-25T04:53:39;19.10;;;8.77;;
20976;SDS011;10647;51.016;3.720;2022-09-25T04:56:07;23.80;;;9.13;;
20976;SDS011;10647;51.016;3.720;2022-09-25T04:58:38;20.17;;;8.50;;
20976;SDS011;10647;51.016;3.720;2022-09-25T05:01:07;21.00;;;8.43;;
20976;SDS011;10647;51.016;3.720;2022-09-25T05:03:35;26.07;;;9.00;;
20976;SDS011;10647;51.016;3.720;2022-09-25T05:06:03;23.00;;;9.00;;
20976;SDS011;10647;51.016;3.720;2022-09-25T05:08:30;22.83;;;9.70;;
20976;SDS011;10647;51.016;3.720;2022-09-25T05:10:58;27.50;;;9.03;;
20976;SDS011;10647;51.016;3.720;2022-09-25T05:13:25;22.17;;;9.73;;
20976;SDS011;10647;51.016;3.720;2022-09-25T05:15:53;25.33;;;9.80;;
20976;SDS011;10647;51.016;3.720;2022-09-25T05:18:21;25.77;;;9.80;;
20976;SDS011;10647;51.016;3.720;2022-09-25T05:21:09;21.07;;;9.63;;
20976;SDS011;10647;51.016;3.720;2022-09-25T05:23:38;24.27;;;9.47;;
20976;SDS011;10647;51.016;3.720;2022-09-25T05:26:05;22.93;;;10.27;;
20976;SDS011;10647;51.016;3.720;2022-09-25T05:28:33;25.63;;;10.03;;
20976;SDS011;10647;51.016;3.720;2022-09-25T05:31:02;23.23;;;9.40;;
20976;SDS011;10647;51.016;3.720;2022-09-25T05:33:31;29.47;;;10.13;;
20976;SDS011;10647;51.016;3.720;2022-09-25T05:36:06;20.43;;;9.17;;
20976;SDS011;10647;51.016;3.720;2022-09-25T05:38:35;24.90;;;9.53;;
20976;SDS011;10647;51.016;3.720;2022-09-25T05:41:04;26.90;;;9.67;;
20976;SDS011;10647;51.016;3.720;2022-09-25T05:43:43;23.50;;;9.97;;
20976;SDS011;10647;51.016;3.720;2022-09-25T05:46:05;25.50;;;9.43;;
20976;SDS011;10647;51.016;3.720;2022-09-25T05:48:33;22.33;;;9.60;;
20976;SDS011;10647;51.016;3.720;2022-09-25T05:51:02;28.33;;;9.77;;
20976;SDS011;10647;51.016;3.720;2022-09-25T05:53:30;23.10;;;10.03;;
20976;SDS011;10647;51.016;3.720;2022-09-25T05:55:58;20.73;;;9.37;;
20976;SDS011;10647;51.016;3.720;2022-09-25T06:00:59;27.00;;;9.60;;
20976;SDS011;10647;51.016;3.720;2022-09-25T06:03:28;19.97;;;9.83;;
20976;SDS011;10647;51.016;3.720;2022-09-25T06:05:56;26.90;;;9.63;;
20976;SDS011;10647;51.016;3.720;2022-09-25T06:08:25;23.73;;;9.33;;
20976;SDS011;10647;51.016;3.720;2022-09-25T06:10:55;21.80;;;9.40;;
20976;SDS011;10647;51.016;3.720;2022-09-25T06:13:23;35.20;;;12.80;;
20976;SDS011;10647;51.016;3.720;2022-09-25T06:15:51;24.83;;;9.83;;
20976;SDS011;10647;51.016;3.720;2022-09-25T06:18:19;18.70;;;8.90;;
20976;SDS011;10647;51.016;3.720;2022-09-25T06:20:48;22.20;;;9.27;;
20976;SDS011;10647;51.016;3.720;2022-09-25T06:23:17;20.63;;;9.67;;
20976;SDS011;10647;51.016;3.720;2022-09-25T06:25:44;21.90;;;9.80;;
20976;SDS011;10647;51.016;3.720;2022-09-25T06:28:12;24.97;;;10.20;;
20976;SDS011;10647;51.016;3.720;2022-09-25T06:30:39;25.40;;;9.93;;
20976;SDS011;10647;51.016;3.720;2022-09-25T06:33:10;22.43;;;10.90;;
20976;SDS011;10647;51.016;3.720;2022-09-25T06:35:43;31.37;;;10.83;;
20976;SDS011;10647;51.016;3.720;2022-09-25T06:38:12;20.60;;;10.20;;
20976;SDS011;10647;51.016;3.720;2022-09-25T06:40:41;22.97;;;9.73;;
20976;SDS011;10647;51.016;3.720;2022-09-25T06:43:12;19.40;;;9.43;;
20976;SDS011;10647;51.016;3.720;2022-09-25T06:45:41;20.67;;;9.20;;
20976;SDS011;10647;51.016;3.720;2022-09-25T06:48:12;21.83;;;9.70;;
20976;SDS011;10647;51.016;3.720;2022-09-25T06:50:50;21.07;;;9.80;;
20976;SDS011;10647;51.016;3.720;2022-09-25T06:53:21;21.70;;;9.13;;
20976;SDS011;10647;51.016;3.720;2022-09-25T06:55:49;21.43;;;9.53;;
20976;SDS011;10647;51.016;3.720;2022-09-25T06:58:20;24.57;;;9.23;;
20976;SDS011;10647;51.016;3.720;2022-09-25T07:00:50;22.27;;;9.20;;
20976;SDS011;10647;51.016;3.720;2022-09-25T07:03:19;24.60;;;9.53;;
20976;SDS011;10647;51.016;3.720;2022-09-25T07:06:06;21.80;;;8.67;;
20976;SDS011;10647;51.016;3.720;2022-09-25T07:08:35;18.57;;;8.80;;
20976;SDS011;10647;51.016;3.720;2022-09-25T07:11:04;24.23;;;8.80;;
20976;SDS011;10647;51.016;3.720;2022-09-25T07:13:33;17.20;;;8.63;;
20976;SDS011;10647;51.016;3.720;2022-09-25T07:16:02;18.53;;;8.10;;
20976;SDS011;10647;51.016;3.720;2022-09-25T07:18:32;22.37;;;9.03;;
20976;SDS011;10647;51.016;3.720;2022-09-25T07:21:01;20.90;;;9.47;;
20976;SDS011;10647;51.016;3.720;2022-09-25T07:23:37;19.80;;;9.97;;
20976;SDS011;10647;51.016;3.720;2022-09-25T07:26:15;21.37;;;9.97;;
20976;SDS011;10647;51.016;3.720;2022-09-25T07:28:40;19.10;;;9.87;;
20976;SDS011;10647;51.016;3.720;2022-09-25T07:33:50;17.30;;;9.60;;
20976;SDS011;10647;51.016;3.720;2022-09-25T07:36:19;17.10;;;8.77;;
20976;SDS011;10647;51.016;3.720;2022-09-25T07:38:54;15.63;;;7.97;;
20976;SDS011;10647;51.016;3.720;2022-09-25T07:41:19;13.67;;;7.77;;
20976;SDS011;10647;51.016;3.720;2022-09-25T07:43:54;14.93;;;6.90;;
20976;SDS011;10647;51.016;3.720;2022-09-25T07:46:23;12.90;;;6.27;;
20976;SDS011;10647;51.016;3.720;2022-09-25T07:51:28;16.37;;;6.80;;
20976;SDS011;10647;51.016;3.720;2022-09-25T07:53:56;13.30;;;6.80;;
20976;SDS011;10647;51.016;3.720;2022-09-25T07:56:24;17.23;;;6.93;;
20976;SDS011;10647;51.016;3.720;2022-09-25T07:58:52;11.20;;;6.77;;
20976;SDS011;10647;51.016;3.720;2022-09-25T08:01:20;17.53;;;7.47;;
20976;SDS011;10647;51.016;3.720;2022-09-25T08:03:47;16.37;;;7.50;;
20976;SDS011;10647;51.016;3.720;2022-09-25T08:06:16;16.47;;;6.70;;
20976;SDS011;10647;51.016;3.720;2022-09-25T08:08:43;16.83;;;7.00;;
20976;SDS011;10647;51.016;3.720;2022-09-25T08:11:12;18.30;;;7.10;;
20976;SDS011;10647;51.016;3.720;2022-09-25T08:13:41;11.57;;;6.13;;
20976;SDS011;10647;51.016;3.720;2022-09-25T08:16:12;12.87;;;6.80;;
20976;SDS011;10647;51.016;3.720;2022-09-25T08:18:41;12.57;;;5.80;;
20976;SDS011;10647;51.016;3.720;2022-09-25T08:21:11;13.70;;;6.07;;
20976;SDS011;10647;51.016;3.720;2022-09-25T08:23:40;12.93;;;5.80;;
20976;SDS011;10647;51.016;3.720;2022-09-25T08:26:09;12.63;;;6.23;;
20976;SDS011;10647;51.016;3.720;2022-09-25T08:28:36;11.27;;;5.20;;
20976;SDS011;10647;51.016;3.720;2022-09-25T08:31:04;8.87;;;5.30;;
20976;SDS011;10647;51.016;3.720;2022-09-25T08:33:33;11.13;;;5.07;;
20976;SDS011;10647;51.016;3.720;2022-09-25T08:36:02;13.30;;;5.20;;
20976;SDS011;10647;51.016;3.720;2022-09-25T08:38:31;14.83;;;5.07;;
20976;SDS011;10647;51.016;3.720;2022-09-25T08:41:06;7.97;;;4.80;;
20976;SDS011;10647;51.016;3.720;2022-09-25T08:43:31;11.33;;;4.50;;
20976;SDS011;10647;51.016;3.720;2022-09-25T08:46:01;11.87;;;4.67;;
20976;SDS011;10647;51.016;3.720;2022-09-25T08:48:52;14.00;;;4.50;;
20976;SDS011;10647;51.016;3.720;2022-09-25T08:51:30;11.33;;;4.67;;
20976;SDS011;10647;51.016;3.720;2022-09-25T08:54:00;14.07;;;4.07;;
20976;SDS011;10647;51.016;3.720;2022-09-25T08:56:30;8.07;;;3.70;;
20976;SDS011;10647;51.016;3.720;2022-09-25T09:01:45;6.50;;;3.70;;
20976;SDS011;10647;51.016;3.720;2022-09-25T09:04:28;11.40;;;3.50;;
20976;SDS011;10647;51.016;3.720;2022-09-25T09:07:12;7.00;;;3.50;;
20976;SDS011;10647;51.016;3.720;2022-09-25T09:09:44;11.40;;;3.37;;
20976;SDS011;10647;51.016;3.720;2022-09-25T09:12:11;6.87;;;3.13;;
20976;SDS011;10647;51.016;3.720;2022-09-25T09:14:47;8.00;;;3.00;;
20976;SDS011;10647;51.016;3.720;2022-09-25T09:17:21;7.00;;;3.20;;
20976;SDS011;10647;51.016;3.720;2022-09-25T09:19:53;9.77;;;2.40;;
20976;SDS011;10647;51.016;3.720;2022-09-25T09:25:08;6.00;;;1.93;;
20976;SDS011;10647;51.016;3.720;2022-09-25T09:30:22;5.47;;;1.60;;
20976;SDS011;10647;51.016;3.720;2022-09-25T09:36:01;6.37;;;1.37;;
20976;SDS011;10647;51.016;3.720;2022-09-25T09:44:29;8.00;;;1.33;;
20976;SDS011;10647;51.016;3.720;2022-09-25T09:47:05;2.43;;;1.00;;
20976;SDS011;10647;51.016;3.720;2022-09-25T09:49:49;3.43;;;1.00;;
20976;SDS011;10647;51.016;3.720;2022-09-25T09:52:23;3.37;;;1.10;;
20976;SDS011;10647;51.016;3.720;2022-09-25T09:55:03;6.90;;;1.27;;
20976;SDS011;10647;51.016;3.720;2022-09-25T09:57:52;3.67;;;1.30;;
20976;SDS011;10647;51.016;3.720;2022-09-25T10:00:39;3.07;;;0.90;;
20976;SDS011;10647;51.016;3.720;2022-09-25T10:03:19;2.67;;;0.90;;
20976;SDS011;10647;51.016;3.720;2022-09-25T10:06:04;2.30;;;0.73;;
20976;SDS011;10647;51.016;3.720;2022-09-25T10:08:39;3.13;;;0.80;;
20976;SDS011;10647;51.016;3.720;2022-09-25T10:13:46;3.37;;;1.00;;
20976;SDS011;10647;51.016;3.720;2022-09-25T10:16:21;3.83;;;0.70;;
20976;SDS011;10647;51.016;3.720;2022-09-25T10:18:51;5.53;;;0.70;;
20976;SDS011;10647;51.016;3.720;2022-09-25T10:21:22;1.90;;;0.50;;
20976;SDS011;10647;51.016;3.720;2022-09-25T10:23:57;2.80;;;0.43;;
20976;SDS011;10647;51.016;3.720;2022-09-25T10:26:32;3.85;;;0.75;;
20976;SDS011;10647;51.016;3.720;2022-09-25T10:29:03;2.97;;;0.60;;
20976;SDS011;10647;51.016;3.720;2022-09-25T10:31:38;0.80;;;0.45;;
20976;SDS011;10647;51.016;3.720;2022-09-25T10:34:13;4.57;;;0.90;;
20976;SDS011;10647;51.016;3.720;2022-09-25T10:42:05;2.70;;;0.60;;
20976;SDS011;10647;51.016;3.720;2022-09-25T10:44:37;1.30;;;0.53;;
20976;SDS011;10647;51.016;3.720;2022-09-25T10:50:11;2.20;;;0.50;;
20976;SDS011;10647;51.016;3.720;2022-09-25T10:52:55;1.75;;;0.50;;
20976;SDS011;10647;51.016;3.720;2022-09-25T10:55:23;1.05;;;0.68;;
20976;SDS011;10647;51.016;3.720;2022-09-25T10:57:57;2.95;;;0.72;;
20976;SDS011;10647;51.016;3.720;2022-09-25T11:03:21;3.22;;;0.72;;
20976;SDS011;10647;51.016;3.720;2022-09-25T11:05:55;1.45;;;0.50;;
20976;SDS011;10647;51.016;3.720;2022-09-25T11:08:56;1.37;;;0.60;;
20976;SDS011;10647;51.016;3.720;2022-09-25T11:11:20;2.47;;;0.50;;
20976;SDS011;10647;51.016;3.720;2022-09-25T11:13:56;2.77;;;0.75;;
20976;SDS011;10647;51.016;3.720;2022-09-25T11:16:43;0.90;;;0.45;;
20976;SDS011;10647;51.016;3.720;2022-09-25T11:19:14;3.20;;;0.60;;
20976;SDS011;10647;51.016;3.720;2022-09-25T11:21:51;1.77;;;0.40;;
20976;SDS011;10647;51.016;3.720;2022-09-25T11:24:38;1.95;;;0.65;;
20976;SDS011;10647;51.016;3.720;2022-09-25T11:27:11;1.72;;;0.60;;
20976;SDS011;10647;51.016;3.720;2022-09-25T11:29:45;3.80;;;0.60;;
20976;SDS011;10647;51.016;3.720;2022-09-25T11:37:39;2.87;;;0.60;;
20976;SDS011;10647;51.016;3.720;2022-09-25T11:49:18;1.82;;;0.55;;
20976;SDS011;10647;51.016;3.720;2022-09-25T11:52:03;1.92;;;0.50;;
20976;SDS011;10647;51.016;3.720;2022-09-25T11:54:41;2.37;;;0.50;;
20976;SDS011;10647;51.016;3.720;2022-09-25T11:57:15;3.02;;;0.68;;
20976;SDS011;10647;51.016;3.720;2022-09-25T12:11:36;4.65;;;0.70;;
20976;SDS011;10647;51.016;3.720;2022-09-25T12:23:51;4.47;;;0.95;;
20976;SDS011;10647;51.016;3.720;2022-09-25T12:40:50;3.05;;;0.90;;
20976;SDS011;10647;51.016;3.720;2022-09-25T12:43:26;2.65;;;0.70;;
20976;SDS011;10647;51.016;3.720;2022-09-25T12:51:53;3.02;;;0.75;;
20976;SDS011;10647;51.016;3.720;2022-09-25T12:57:11;2.00;;;0.60;;
20976;SDS011;10647;51.016;3.720;2022-09-25T12:59:54;3.92;;;0.70;;
20976;SDS011;10647;51.016;3.720;2022-09-25T13:05:31;4.20;;;0.75;;
20976;SDS011;10647;51.016;3.720;2022-09-25T13:10:51;2.90;;;0.70;;
20976;SDS011;10647;51.016;3.720;2022-09-25T13:13:30;3.15;;;0.62;;
20976;SDS011;10647;51.016;3.720;2022-09-25T13:16:01;2.95;;;0.70;;
20976;SDS011;10647;51.016;3.720;2022-09-25T13:18:31;5.05;;;0.70;;
20976;SDS011;10647;51.016;3.720;2022-09-25T13:23:53;2.27;;;0.60;;
20976;SDS011;10647;51.016;3.720;2022-09-25T13:26:26;2.65;;;0.62;;
20976;SDS011;10647;51.016;3.720;2022-09-25T13:29:16;1.45;;;0.50;;
20976;SDS011;10647;51.016;3.720;2022-09-25T13:32:06;2.52;;;0.50;;
20976;SDS011;10647;51.016;3.720;2022-09-25T13:34:55;3.55;;;0.50;;
20976;SDS011;10647;51.016;3.720;2022-09-25T13:37:26;3.72;;;0.70;;
20976;SDS011;10647;51.016;3.720;2022-09-25T13:39:57;3.27;;;0.70;;
20976;SDS011;10647;51.016;3.720;2022-09-25T13:42:51;1.82;;;0.60;;
20976;SDS011;10647;51.016;3.720;2022-09-25T13:45:32;3.15;;;0.50;;
20976;SDS011;10647;51.016;3.720;2022-09-25T13:48:31;2.87;;;0.60;;
20976;SDS011;10647;51.016;3.720;2022-09-25T13:51:24;5.55;;;0.70;;
20976;SDS011;10647;51.016;3.720;2022-09-25T13:54:01;3.85;;;0.70;;
20976;SDS011;10647;51.016;3.720;2022-09-25T14:02:47;2.95;;;0.50;;
20976;SDS011;10647;51.016;3.720;2022-09-25T14:04:59;2.72;;;0.65;;
20976;SDS011;10647;51.016;3.720;2022-09-25T14:07:28;3.22;;;1.05;;
20976;SDS011;10647;51.016;3.720;2022-09-25T14:10:08;2.75;;;0.50;;
20976;SDS011;10647;51.016;3.720;2022-09-25T14:12:44;1.92;;;0.85;;
20976;SDS011;10647;51.016;3.720;2022-09-25T14:15:22;3.55;;;0.60;;
20976;SDS011;10647;51.016;3.720;2022-09-25T14:17:53;2.25;;;0.50;;
20976;SDS011;10647;51.016;3.720;2022-09-25T14:20:46;2.40;;;0.55;;
20976;SDS011;10647;51.016;3.720;2022-09-25T14:23:12;2.95;;;0.50;;
20976;SDS011;10647;51.016;3.720;2022-09-25T14:25:57;1.90;;;0.70;;
20976;SDS011;10647;51.016;3.720;2022-09-25T14:29:12;2.75;;;0.80;;
20976;SDS011;10647;51.016;3.720;2022-09-25T14:31:20;3.12;;;0.50;;
20976;SDS011;10647;51.016;3.720;2022-09-25T14:39:56;2.02;;;0.50;;
20976;SDS011;10647;51.016;3.720;2022-09-25T14:48:14;4.00;;;0.62;;
20976;SDS011;10647;51.016;3.720;2022-09-25T14:50:51;4.05;;;0.60;;
20976;SDS011;10647;51.016;3.720;2022-09-25T14:53:43;1.80;;;0.50;;
20976;SDS011;10647;51.016;3.720;2022-09-25T14:56:13;2.77;;;0.50;;
20976;SDS011;10647;51.016;3.720;2022-09-25T14:58:49;2.12;;;0.50;;
20976;SDS011;10647;51.016;3.720;2022-09-25T15:01:26;3.47;;;0.55;;
20976;SDS011;10647;51.016;3.720;2022-09-25T15:04:03;1.80;;;0.45;;
20976;SDS011;10647;51.016;3.720;2022-09-25T15:06:35;1.25;;;0.37;;
20976;SDS011;10647;51.016;3.720;2022-09-25T15:09:27;2.92;;;0.30;;
20976;SDS011;10647;51.016;3.720;2022-09-25T15:17:33;2.45;;;0.45;;
20976;SDS011;10647;51.016;3.720;2022-09-25T15:20:04;2.33;;;0.53;;
20976;SDS011;10647;51.016;3.720;2022-09-25T15:22:34;1.10;;;0.50;;
20976;SDS011;10647;51.016;3.720;2022-09-25T15:25:05;1.90;;;0.40;;
20976;SDS011;10647;51.016;3.720;2022-09-25T15:27:34;2.80;;;0.50;;
20976;SDS011;10647;51.016;3.720;2022-09-25T15:30:12;1.20;;;0.47;;
20976;SDS011;10647;51.016;3.720;2022-09-25T15:32:42;3.00;;;0.70;;
20976;SDS011;10647;51.016;3.720;2022-09-25T15:35:15;4.80;;;0.45;;
20976;SDS011;10647;51.016;3.720;2022-09-25T15:37:44;3.60;;;0.50;;
20976;SDS011;10647;51.016;3.720;2022-09-25T15:40:19;2.70;;;0.65;;
20976;SDS011;10647;51.016;3.720;2022-09-25T15:42:50;1.72;;;0.50;;
20976;SDS011;10647;51.016;3.720;2022-09-25T15:48:00;2.55;;;0.40;;
20976;SDS011;10647;51.016;3.720;2022-09-25T15:50:30;2.27;;;0.50;;
20976;SDS011;10647;51.016;3.720;2022-09-25T15:52:58;4.60;;;0.65;;
20976;SDS011;10647;51.016;3.720;2022-09-25T15:55:28;1.85;;;0.40;;
20976;SDS011;10647;51.016;3.720;2022-09-25T15:58:03;2.75;;;0.40;;
20976;SDS011;10647;51.016;3.720;2022-09-25T16:00:31;2.10;;;0.40;;
20976;SDS011;10647;51.016;3.720;2022-09-25T16:03:23;1.07;;;0.40;;
20976;SDS011;10647;51.016;3.720;2022-09-25T16:06:13;2.45;;;0.40;;
20976;SDS011;10647;51.016;3.720;2022-09-25T16:08:42;2.00;;;0.50;;
20976;SDS011;10647;51.016;3.720;2022-09-25T16:11:25;2.65;;;0.60;;
20976;SDS011;10647;51.016;3.720;2022-09-25T16:16:44;1.82;;;0.90;;
20976;SDS011;10647;51.016;3.720;2022-09-25T16:21:54;2.72;;;0.68;;
20976;SDS011;10647;51.016;3.720;2022-09-25T16:24:25;1.70;;;0.50;;
20976;SDS011;10647;51.016;3.720;2022-09-25T16:27:00;2.30;;;0.57;;
20976;SDS011;10647;51.016;3.720;2022-09-25T16:29:30;1.60;;;0.60;;
20976;SDS011;10647;51.016;3.720;2022-09-25T16:31:59;2.72;;;0.50;;
20976;SDS011;10647;51.016;3.720;2022-09-25T16:34:33;2.52;;;0.60;;
20976;SDS011;10647;51.016;3.720;2022-09-25T16:37:03;2.10;;;0.60;;
20976;SDS011;10647;51.016;3.720;2022-09-25T16:39:33;2.00;;;0.65;;
20976;SDS011;10647;51.016;3.720;2022-09-25T16:42:22;1.20;;;0.50;;
20976;SDS011;10647;51.016;3.720;2022-09-25T16:45:00;3.33;;;0.62;;
20976;SDS011;10647;51.016;3.720;2022-09-25T16:47:39;1.85;;;0.50;;
20976;SDS011;10647;51.016;3.720;2022-09-25T16:50:08;3.73;;;0.67;;
20976;SDS011;10647;51.016;3.720;2022-09-25T16:52:37;1.40;;;0.50;;
20976;SDS011;10647;51.016;3.720;2022-09-25T16:55:30;6.73;;;0.70;;
20976;SDS011;10647;51.016;3.720;2022-09-25T17:00:23;5.20;;;0.60;;
20976;SDS011;10647;51.016;3.720;2022-09-25T17:02:52;5.70;;;0.70;;
20976;SDS011;10647;51.016;3.720;2022-09-25T17:05:24;3.00;;;0.50;;
20976;SDS011;10647;51.016;3.720;2022-09-25T17:07:58;4.10;;;0.50;;
20976;SDS011;10647;51.016;3.720;2022-09-25T17:10:28;3.10;;;0.60;;
20976;SDS011;10647;51.016;3.720;2022-09-25T17:12:58;2.80;;;0.90;;
20976;SDS011;10647;51.016;3.720;2022-09-25T17:15:28;2.20;;;0.73;;
20976;SDS011;10647;51.016;3.720;2022-09-25T17:17:57;3.47;;;0.90;;
20976;SDS011;10647;51.016;3.720;2022-09-25T17:20:27;3.60;;;0.80;;
20976;SDS011;10647;51.016;3.720;2022-09-25T17:22:56;6.83;;;1.03;;
20976;SDS011;10647;51.016;3.720;2022-09-25T17:25:41;4.23;;;1.03;;
20976;SDS011;10647;51.016;3.720;2022-09-25T17:28:12;3.97;;;1.20;;
20976;SDS011;10647;51.016;3.720;2022-09-25T17:30:42;4.70;;;1.17;;
20976;SDS011;10647;51.016;3.720;2022-09-25T17:33:14;4.33;;;0.90;;
20976;SDS011;10647;51.016;3.720;2022-09-25T17:35:45;1.83;;;0.83;;
20976;SDS011;10647;51.016;3.720;2022-09-25T17:38:14;2.43;;;0.80;;
20976;SDS011;10647;51.016;3.720;2022-09-25T17:40:42;4.10;;;1.00;;
20976;SDS011;10647;51.016;3.720;2022-09-25T17:43:12;2.60;;;1.00;;
20976;SDS011;10647;51.016;3.720;2022-09-25T17:45:44;1.23;;;0.73;;
20976;SDS011;10647;51.016;3.720;2022-09-25T17:48:16;6.40;;;1.10;;
20976;SDS011;10647;51.016;3.720;2022-09-25T17:50:52;2.40;;;0.70;;
20976;SDS011;10647;51.016;3.720;2022-09-25T17:53:23;5.43;;;0.97;;
20976;SDS011;10647;51.016;3.720;2022-09-25T17:55:58;5.50;;;1.20;;